LCKA4: Locksburg, AR

                                SHEF ID:       LCKA4     Saline River near Lockesburg, AR
STATION TYPE: Stream Gauge
Regulating: Stage = 8.80, Flow = 813

PRECIP STAGE RIV-FLOW BAT-LOAD
in ft cfs volt
Ccp-Rev Ccp-Rev Ccp-Rev Ccp-Rev
(America/Chicago)
04/25 00:00 ---- 4.16 109 12.56
04/25 01:00 ---- 4.18 112 12.54
04/25 02:00 ---- 4.20 114 12.50
04/25 03:00 ---- 4.21 115 12.52
04/25 04:00 ---- 4.21 115 12.48
04/25 05:00 ---- 4.22 117 12.47
04/25 06:00 ---- 4.24 119 12.46
04/25 07:00 ---- 4.26 121 12.40
04/25 08:00 ---- 4.31 128 12.46
04/25 09:00 ---- 4.38 137 12.86
04/25 10:00 ---- 4.50 155 13.43
04/25 11:00 ---- 4.66 173 13.23
04/25 12:00 ---- 4.83 193 13.23
04/25 13:00 ---- 4.99 212 13.18
04/25 14:00 ---- 5.11 226 13.11
04/25 15:00 ---- 5.18 235 13.09
04/25 16:00 ---- 5.23 241 12.97
04/25 17:00 ---- 5.28 248 12.96
04/25 18:00 ---- 5.32 253 13.03
04/25 19:00 ---- 5.35 257 13.09
04/25 20:00 ---- 5.37 259 12.90
04/25 21:00 ---- 5.37 259 12.70
04/25 22:00 ---- 5.36 258 12.60
04/25 23:00 ---- 5.33 254 12.57
Data processed at Sun 26Apr2026 04:11 GMT

NOTICE: If you are parsing this page

Please convert to using our Data API. Starting early 2026 we will be migrating to: https://water.usace.army.mil with modern pages rendered in JavaScript. When this migration completes you will no longer be able to scrape this page! CWMSDataAPI (CDA)

Timeseries IDs (TSIDs)

TSIDs used from left to right in the data table
LOCK.Precip-Inc.Total.1Hour.1Hour.Ccp-Rev
LOCK.Stage.Inst.1Hour.0.Ccp-Rev
LOCK.Flow.Inst.1Hour.0.Ccp-Rev
LOCK.Volt-Battery Load.Inst.1Hour.0.Ccp-Rev

                            

All information presented herein is the property of the government of the United States of America and may be revised or deleted at any time without prior notice. Dissemination of this information without the expressed written consent of the Public Affairs Office, Tulsa District U.S. Army Corps of Engineers is strictly prohibited. These data are gathered electronically and, as presented, have NOT undergone any form of quality control. These data are NOT guaranteed to be valid or correct.